Time;durP1;ratioP1;P1;durP2;ratioP2;P2;SDS_P1;SDS_P2;PMS_P1;PMS_P2;Temp;Humidity;BMP_temperature;BMP_pressure;BME280_temperature;BME280_humidity;BME280_pressure;Samples;Min_cycle;Max_cycle;Signal;HPM_P1;HPM_P2
2022/09/28 04:32:17;;;;;;;;;1.75;1.00;;;;;13.15;75.19;99548.00;3258416;26;45951;-77
2022/09/28 04:34:42;;;;;;;;;1.00;1.00;;;;;13.19;74.65;99562.94;4975335;28;45221;-77
2022/09/28 04:37:08;;;;;;;;;1.00;1.00;;;;;13.18;75.03;99562.06;4975728;28;45400;-78
2022/09/28 04:39:33;;;;;;;;;1.00;1.00;;;;;13.18;74.77;99561.25;4974466;28;45837;-76
2022/09/28 04:41:58;;;;;;;;;3.50;1.00;;;;;13.15;74.44;99556.94;4975774;28;46577;-77
2022/09/28 04:44:24;;;;;;;;;2.75;1.25;;;;;13.07;75.08;99548.56;4976054;28;45482;-77
2022/09/28 04:46:49;;;;;;;;;1.25;1.25;;;;;13.18;75.09;99567.47;4974500;28;45413;-77
2022/09/28 04:49:16;;;;;;;;;1.25;1.25;;;;;13.05;74.93;99550.50;4974420;28;46936;-78
2022/09/28 04:51:41;;;;;;;;;1.00;1.00;;;;;13.15;75.57;99574.91;4990328;28;48197;-77
2022/09/28 04:54:07;;;;;;;;;2.75;2.25;;;;;13.00;75.59;99541.06;4974383;28;45673;-78
2022/09/28 04:56:32;;;;;;;;;1.75;1.00;;;;;13.19;75.58;99577.25;4976045;28;45364;-77
2022/09/28 04:58:58;;;;;;;;;3.25;2.00;;;;;13.22;75.40;99568.97;4974096;28;47019;-77
2022/09/28 05:01:23;;;;;;;;;1.00;1.00;;;;;13.24;75.46;99567.03;4990360;28;47062;-76
2022/09/28 05:03:49;;;;;;;;;3.75;2.00;;;;;13.22;75.09;99568.09;4974506;28;45548;-76
2022/09/28 05:06:15;;;;;;;;;2.25;2.00;;;;;13.18;75.24;99566.63;4990376;28;45450;-75
2022/09/28 05:08:41;;;;;;;;;1.25;1.25;;;;;13.27;75.30;99577.53;4980117;28;45542;-78
2022/09/28 05:11:11;;;;;;;;;1.75;1.75;;;;;13.23;74.97;99575.19;4975503;28;46043;-75
2022/09/28 05:13:44;;;;;;;;;1.25;1.25;;;;;13.16;75.50;99569.44;4990664;28;45648;-76
2022/09/28 05:16:10;;;;;;;;;2.00;2.00;;;;;13.14;74.76;99557.91;4974773;28;45428;-77
2022/09/28 05:18:36;;;;;;;;;2.00;2.00;;;;;13.05;75.38;99563.94;4975678;28;45327;-76
2022/09/28 05:21:02;;;;;;;;;2.75;2.00;;;;;13.05;75.24;99561.25;4990178;28;47002;-77
2022/09/28 05:23:27;;;;;;;;;1.00;1.00;;;;;13.10;75.18;99553.69;4975317;28;45462;-75
2022/09/28 05:25:53;;;;;;;;;3.00;1.75;;;;;13.04;75.38;99558.69;4975571;28;45346;-77
2022/09/28 05:28:24;;;;;;;;;1.25;1.25;;;;;12.99;75.96;99545.59;4978476;28;45244;-78
2022/09/28 05:30:49;;;;;;;;;2.50;2.50;;;;;12.85;75.78;99519.69;4979058;28;46607;-76
2022/09/28 05:33:14;;;;;;;;;1.75;1.75;;;;;13.11;75.30;99559.94;4979459;28;45398;-76
2022/09/28 05:35:40;;;;;;;;;1.00;1.00;;;;;13.13;75.42;99560.69;4978899;28;45371;-78
2022/09/28 05:38:05;;;;;;;;;1.00;1.00;;;;;13.05;74.90;99553.19;4973566;28;46073;-75
2022/09/28 05:40:31;;;;;;;;;1.25;1.25;;;;;12.99;74.99;99544.72;4974512;28;45476;-75
2022/09/28 05:43:00;;;;;;;;;3.00;2.00;;;;;13.08;75.04;99554.81;4973951;28;45492;-75
2022/09/28 05:45:27;;;;;;;;;1.00;1.00;;;;;13.09;74.69;99562.75;4973370;28;45303;-74
2022/09/28 05:47:53;;;;;;;;;1.25;1.25;;;;;12.94;75.23;99534.28;4972389;28;46045;-75
2022/09/28 05:50:19;;;;;;;;;1.00;1.00;;;;;13.17;74.71;99567.59;4969135;28;47755;-76
2022/09/28 05:52:45;;;;;;;;;1.25;1.25;;;;;13.09;74.55;99554.69;4970596;28;45506;-76
2022/09/28 05:55:11;;;;;;;;;2.50;1.25;;;;;13.17;73.81;99571.16;4971986;28;45412;-73
2022/09/28 05:57:37;;;;;;;;;1.50;1.50;;;;;13.13;73.79;99580.41;4978217;28;45623;-73
2022/09/28 06:00:08;;;;;;;;;1.00;1.00;;;;;13.15;73.55;99586.53;4973717;28;45412;-76
2022/09/28 06:02:34;;;;;;;;;2.00;2.00;;;;;13.09;73.68;99576.22;4972523;28;46009;-76
2022/09/28 06:04:59;;;;;;;;;2.00;2.00;;;;;13.21;74.17;99588.78;4989609;28;45477;-74
2022/09/28 06:07:24;;;;;;;;;3.00;3.00;;;;;13.32;74.10;99587.97;4974034;28;45369;-75
2022/09/28 06:09:50;;;;;;;;;4.00;2.25;;;;;13.27;73.87;99573.97;4972372;28;47106;-76
2022/09/28 06:12:15;;;;;;;;;2.00;2.00;;;;;13.29;73.36;99574.72;4989762;28;45349;-74
2022/09/28 06:14:40;;;;;;;;;2.00;2.00;;;;;13.33;72.40;99573.53;4974639;28;45658;-76
2022/09/28 06:17:06;;;;;;;;;1.00;1.00;;;;;13.30;72.19;99573.75;4989640;28;47775;-75
2022/09/28 06:19:31;;;;;;;;;3.25;2.00;;;;;13.35;72.15;99586.88;4974762;28;45387;-75
2022/09/28 06:21:57;;;;;;;;;4.00;2.25;;;;;13.33;72.16;99592.38;4972930;28;45384;-75
2022/09/28 06:24:22;;;;;;;;;2.25;2.25;;;;;13.32;72.81;99587.09;4974593;28;45493;-75
2022/09/28 06:26:47;;;;;;;;;2.00;2.00;;;;;13.30;72.84;99579.13;4974445;28;45385;-76
2022/09/28 06:29:17;;;;;;;;;1.00;1.00;;;;;13.37;72.29;99595.69;4973116;28;48150;-75
2022/09/28 06:31:42;;;;;;;;;3.00;3.00;;;;;13.27;72.58;99590.13;4973159;28;45374;-76
2022/09/28 06:34:09;;;;;;;;;2.00;2.00;;;;;13.25;72.76;99584.88;4974196;28;45415;-76
2022/09/28 06:36:34;;;;;;;;;2.00;2.00;;;;;13.32;72.87;99601.44;4974226;28;45232;-76
2022/09/28 06:38:59;;;;;;;;;4.00;3.00;;;;;13.27;72.67;99597.38;4972714;28;45568;-76
2022/09/28 06:41:25;;;;;;;;;2.00;2.00;;;;;13.27;72.69;99584.75;4977503;28;45413;-75
2022/09/28 06:43:50;;;;;;;;;2.00;1.00;;;;;13.39;72.53;99605.38;4976259;28;46003;-76
2022/09/28 06:46:16;;;;;;;;;1.00;1.00;;;;;13.35;71.95;99603.91;4977556;28;46137;-76
2022/09/28 06:48:43;;;;;;;;;4.00;2.50;;;;;13.35;71.32;99622.75;4976041;28;45895;-76
2022/09/28 06:51:08;;;;;;;;;2.50;1.25;;;;;13.29;71.46;99612.41;4975975;28;45345;-76
2022/09/28 06:53:34;;;;;;;;;4.25;1.00;;;;;13.13;71.47;99584.91;4977474;28;45667;-76
2022/09/28 06:56:01;;;;;;;;;3.00;1.75;;;;;13.30;71.15;99624.91;4976122;28;46560;-76
2022/09/28 06:58:27;;;;;;;;;2.75;1.75;;;;;13.18;71.47;99613.22;4977157;28;45341;-76
2022/09/28 07:00:58;;;;;;;;;2.50;1.00;;;;;13.38;71.20;99630.56;4977617;28;45273;-77
2022/09/28 07:03:23;;;;;;;;;2.00;2.00;;;;;13.32;71.43;99620.28;4992725;28;45395;-77
2022/09/28 07:05:51;;;;;;;;;3.00;2.00;;;;;13.35;71.04;99632.66;4992893;28;46558;-76
2022/09/28 07:08:17;;;;;;;;;1.50;1.50;;;;;13.30;71.25;99632.97;4995983;28;47494;-74
2022/09/28 07:10:44;;;;;;;;;1.75;1.00;;;;;13.41;70.91;99648.34;4979386;28;45175;-76
2022/09/28 07:13:12;;;;;;;;;2.25;2.00;;;;;13.33;70.96;99637.28;4996657;28;45292;-75
2022/09/28 07:15:37;;;;;;;;;2.00;2.00;;;;;13.50;71.31;99653.88;4977639;28;47241;-75
2022/09/28 07:18:04;;;;;;;;;3.00;2.00;;;;;13.33;71.04;99619.31;4975506;28;46542;-76
2022/09/28 07:20:32;;;;;;;;;4.00;2.00;;;;;13.59;70.84;99655.91;4976911;28;45382;-76
2022/09/28 07:22:59;;;;;;;;;3.00;3.00;;;;;13.61;70.10;99648.53;4977137;28;45256;-76
2022/09/28 07:25:28;;;;;;;;;2.00;2.00;;;;;13.63;68.82;99648.41;4975371;28;45737;-75
2022/09/28 07:28:01;;;;;;;;;5.50;3.75;;;;;13.55;69.71;99637.38;4991896;28;48417;-76
2022/09/28 07:30:31;;;;;;;;;2.00;2.00;;;;;13.60;69.69;99649.53;4975380;28;45435;-75
2022/09/28 07:33:01;;;;;;;;;3.75;3.00;;;;;13.59;69.47;99633.50;4991849;28;45927;-76
2022/09/28 07:35:27;;;;;;;;;1.75;1.75;;;;;13.66;68.70;99653.59;4976503;28;45523;-76
2022/09/28 07:38:00;;;;;;;;;2.25;2.25;;;;;13.63;69.21;99645.72;4975302;28;47161;-75
2022/09/28 07:43:11;;;;;;;;;1.00;1.00;;;;;13.66;68.91;99641.94;4976857;28;45506;-76
2022/09/28 07:45:37;;;;;;;;;1.00;1.00;;;;;13.77;68.38;99664.41;4974868;28;46206;-76
2022/09/28 07:48:03;;;;;;;;;2.25;1.75;;;;;13.65;68.07;99646.47;4976563;28;45352;-75
2022/09/28 07:50:30;;;;;;;;;2.25;2.25;;;;;13.78;68.54;99676.06;4976103;28;45426;-75
2022/09/28 07:52:56;;;;;;;;;1.00;1.00;;;;;13.71;67.95;99662.16;4991706;28;45361;-74
2022/09/28 07:55:22;;;;;;;;;1.75;1.75;;;;;13.80;68.31;99677.63;4974875;28;46299;-77
2022/09/28 07:57:58;;;;;;;;;2.00;2.00;;;;;13.79;68.32;99670.53;4991514;28;48049;-75
2022/09/28 08:00:23;;;;;;;;;4.75;2.25;;;;;13.80;68.34;99668.69;4974967;28;45402;-76
2022/09/28 08:02:49;;;;;;;;;4.00;2.00;;;;;13.92;69.07;99679.41;4975096;28;45453;-76
2022/09/28 08:05:14;;;;;;;;;3.00;2.25;;;;;13.99;68.52;99686.03;4974511;28;46925;-75
2022/09/28 08:07:41;;;;;;;;;4.50;2.00;;;;;14.05;68.50;99686.53;4974327;28;46634;-76
2022/09/28 08:10:07;;;;;;;;;5.50;2.50;;;;;13.99;68.66;99669.88;4974853;28;46218;-75
2022/09/28 08:12:33;;;;;;;;;3.00;3.00;;;;;14.19;67.65;99686.34;4975923;28;45639;-76
2022/09/28 08:14:59;;;;;;;;;1.75;1.75;;;;;14.19;67.52;99680.94;4976335;28;45304;-77
2022/09/28 08:17:24;;;;;;;;;2.00;2.00;;;;;14.22;66.76;99683.38;4974791;28;48514;-76
2022/09/28 08:22:33;;;;;;;;;0.00;0.00;;;;;14.23;66.44;99690.50;4976339;28;45361;-76
2022/09/28 08:24:59;;;;;;;;;2.25;2.25;;;;;14.23;66.88;99698.59;4976167;28;45637;-77
2022/09/28 08:27:24;;;;;;;;;4.00;2.00;;;;;14.18;67.35;99679.22;4976242;28;45506;-76
2022/09/28 08:29:50;;;;;;;;;1.00;1.00;;;;;14.23;65.21;99679.72;4991098;28;45502;-76
2022/09/28 08:32:18;;;;;;;;;2.75;2.50;;;;;14.25;65.70;99681.31;4974404;28;45361;-76
2022/09/28 08:34:44;;;;;;;;;0.00;0.00;;;;;14.09;64.14;99656.53;4974431;28;46299;-76
2022/09/28 08:37:09;;;;;;;;;4.50;2.00;;;;;14.23;63.73;99680.56;4975299;28;46031;-76
2022/09/28 08:39:35;;;;;;;;;1.25;1.25;;;;;14.31;64.17;99693.47;4974352;28;45435;-76
2022/09/28 08:42:09;;;;;;;;;0.25;0.25;;;;;14.35;63.67;99697.66;4977545;28;45351;-76
2022/09/28 08:44:47;;;;;;;;;4.00;1.00;;;;;14.36;63.37;99697.53;4974143;28;47521;-76
2022/09/28 08:50:16;;;;;;;;;1.00;1.00;;;;;14.45;63.09;99685.19;4979499;28;45393;-78
2022/09/28 08:52:46;;;;;;;;;2.25;1.00;;;;;14.56;62.46;99692.41;4976975;28;45428;-78
2022/09/28 08:55:15;;;;;;;;;1.00;1.00;;;;;14.65;62.27;99700.66;4978514;28;45286;-76
2022/09/28 08:57:49;;;;;;;;;1.50;1.50;;;;;14.58;62.50;99674.28;4973874;28;46754;-76
2022/09/28 09:00:21;;;;;;;;;1.00;1.00;;;;;14.76;62.29;99692.56;4975443;28;45317;-77
2022/09/28 09:02:47;;;;;;;;;4.25;3.00;;;;;14.87;60.32;99694.41;4973287;28;45401;-76
2022/09/28 09:05:18;;;;;;;;;2.00;0.00;;;;;14.72;59.67;99664.09;4975665;28;45296;-75
2022/09/28 09:08:02;;;;;;;;;2.00;1.00;;;;;14.96;59.27;99696.38;4973829;28;47083;-76
2022/09/28 09:10:48;;;;;;;;;2.50;2.00;;;;;15.00;59.27;99696.97;4975645;28;45355;-75
2022/09/28 09:13:37;;;;;;;;;1.00;1.00;;;;;14.84;59.09;99670.38;4975850;28;45366;-77
2022/09/28 09:16:10;;;;;;;;;4.00;1.00;;;;;15.01;59.32;99698.69;4973855;28;46465;-77
2022/09/28 09:18:42;;;;;;;;;2.75;1.00;;;;;14.95;58.39;99686.56;4973710;28;47093;-75
2022/09/28 09:21:15;;;;;;;;;1.00;1.00;;;;;15.00;58.32;99699.66;4975022;28;45379;-75
2022/09/28 09:23:43;;;;;;;;;0.50;0.50;;;;;15.01;58.29;99707.66;4975371;28;45373;-76
2022/09/28 09:26:19;;;;;;;;;1.00;1.00;;;;;15.02;57.50;99700.41;4975152;28;45607;-76
2022/09/28 09:29:12;;;;;;;;;1.00;1.00;;;;;15.06;58.32;99705.41;4975183;28;46075;-76
2022/09/28 09:32:15;;;;;;;;;2.25;1.75;;;;;15.02;58.30;99697.72;4989889;28;45381;-76
2022/09/28 09:34:55;;;;;;;;;1.00;1.00;;;;;15.23;58.67;99708.59;4975352;28;45346;-76
2022/09/28 09:37:29;;;;;;;;;1.25;1.25;;;;;15.29;57.80;99702.72;4975433;28;45442;-75
2022/09/28 09:40:10;;;;;;;;;1.00;1.00;;;;;15.32;57.52;99692.50;4974854;28;45506;-76
2022/09/28 09:42:51;;;;;;;;;1.00;1.00;;;;;15.40;56.27;99698.13;4975002;28;45390;-76
2022/09/28 09:45:29;;;;;;;;;0.00;0.00;;;;;15.41;56.12;99702.53;4974865;28;45296;-76
2022/09/28 09:48:20;;;;;;;;;1.00;1.00;;;;;15.48;55.88;99702.94;4989949;28;46059;-76
2022/09/28 09:50:52;;;;;;;;;2.00;1.00;;;;;15.54;55.83;99707.84;4973279;28;47848;-77
2022/09/28 09:53:36;;;;;;;;;0.75;0.75;;;;;15.58;56.01;99701.19;4974262;28;45455;-77
2022/09/28 09:56:17;;;;;;;;;0.00;0.00;;;;;15.58;54.95;99703.03;4989900;28;45456;-77
2022/09/28 09:58:49;;;;;;;;;1.25;1.25;;;;;15.47;54.87;99712.88;4974745;28;45225;-76
2022/09/28 10:01:20;;;;;;;;;1.00;1.00;;;;;15.35;55.08;99684.16;4955613;28;46426;-77
2022/09/28 10:03:47;;;;;;;;;3.00;1.00;;;;;15.34;55.80;99684.28;4973302;28;46348;-77
2022/09/28 10:06:35;;;;;;;;;5.25;2.00;;;;;15.44;55.99;99690.63;4989731;28;45665;-76
2022/09/28 10:09:04;;;;;;;;;4.75;1.00;;;;;15.48;55.49;99690.25;4974839;28;45359;-77
2022/09/28 10:11:38;;;;;;;;;2.50;2.00;;;;;15.47;54.76;99690.41;4974606;28;46349;-76
2022/09/28 10:14:05;;;;;;;;;2.00;1.00;;;;;15.34;54.08;99655.44;4990676;28;45578;-76
2022/09/28 10:16:31;;;;;;;;;2.25;1.00;;;;;15.41;53.52;99664.72;4978461;28;45346;-76
2022/09/28 10:18:58;;;;;;;;;1.00;1.00;;;;;15.58;53.25;99673.31;4977856;28;46099;-77
2022/09/28 10:21:24;;;;;;;;;1.50;1.00;;;;;15.78;52.57;99697.69;4976383;28;46551;-77
2022/09/28 10:23:56;;;;;;;;;1.00;1.00;;;;;15.63;53.24;99666.56;4976162;28;45496;-77
2022/09/28 10:26:33;;;;;;;;;1.00;1.00;;;;;15.82;53.57;99701.00;4978887;28;45497;-78
2022/09/28 10:29:03;;;;;;;;;1.75;1.75;;;;;15.85;52.72;99706.13;4981145;28;45367;-77
2022/09/28 10:31:42;;;;;;;;;2.25;1.50;;;;;15.82;52.94;99688.31;4981043;28;46217;-77
2022/09/28 10:34:12;;;;;;;;;1.00;1.00;;;;;15.92;53.28;99695.66;4980189;28;45536;-76
2022/09/28 10:37:02;;;;;;;;;3.25;2.00;;;;;15.80;52.87;99690.31;4993791;28;45289;-76
2022/09/28 10:39:52;;;;;;;;;2.25;2.00;;;;;15.92;52.85;99703.75;4976166;28;45676;-76
2022/09/28 10:42:21;;;;;;;;;2.00;1.00;;;;;15.89;52.20;99692.25;4977927;28;45252;-77
2022/09/28 10:45:05;;;;;;;;;1.00;1.00;;;;;15.77;51.31;99690.56;4978099;28;45452;-76
2022/09/28 10:47:32;;;;;;;;;1.00;1.00;;;;;15.77;51.20;99695.97;4976811;28;45388;-78
2022/09/28 10:49:59;;;;;;;;;1.00;1.00;;;;;15.75;50.91;99683.56;4976156;28;47450;-77
2022/09/28 10:52:36;;;;;;;;;2.00;2.00;;;;;15.84;51.85;99680.09;4975826;28;47909;-75
2022/09/28 10:55:27;;;;;;;;;1.00;1.00;;;;;15.96;52.23;99699.81;4977564;28;45400;-77
2022/09/28 10:57:52;;;;;;;;;2.50;1.75;;;;;16.00;52.01;99675.09;4976415;28;45468;-76
2022/09/28 11:00:39;;;;;;;;;2.00;1.00;;;;;16.38;51.49;99684.47;4976264;28;45873;-77
2022/09/28 11:03:05;;;;;;;;;1.00;1.00;;;;;16.49;50.45;99682.56;4975988;28;48086;-75
2022/09/28 11:05:31;;;;;;;;;1.75;0.25;;;;;16.55;50.21;99676.59;4977363;28;45290;-76
2022/09/28 11:07:59;;;;;;;;;0.50;0.50;;;;;16.75;50.82;99668.63;4975928;28;45408;-76
2022/09/28 11:10:31;;;;;;;;;3.00;3.00;;;;;17.18;50.26;99688.13;4976131;28;46249;-76
2022/09/28 11:12:58;;;;;;;;;2.00;2.00;;;;;17.15;48.04;99676.75;4977041;28;47293;-76
2022/09/28 11:15:32;;;;;;;;;1.00;1.00;;;;;17.23;48.17;99677.78;4977353;28;45378;-76
2022/09/28 11:18:18;;;;;;;;;2.50;1.00;;;;;17.45;47.85;99673.94;4976997;28;45428;-76
2022/09/28 11:20:44;;;;;;;;;3.00;1.50;;;;;17.49;47.51;99666.41;4975488;28;47559;-76
2022/09/28 11:23:28;;;;;;;;;2.00;2.00;;;;;17.82;48.22;99687.72;4974551;28;47072;-77
2022/09/28 11:26:16;;;;;;;;;3.00;3.00;;;;;18.26;46.79;99680.88;4991592;28;45915;-76
2022/09/28 11:28:41;;;;;;;;;2.00;1.50;;;;;18.19;46.75;99678.88;4975487;28;45273;-77
2022/09/28 11:31:08;;;;;;;;;1.00;1.00;;;;;18.06;46.50;99685.44;4976976;28;45448;-76
2022/09/28 11:33:40;;;;;;;;;1.00;1.00;;;;;17.94;46.90;99692.03;4991895;28;48507;-77
2022/09/28 11:36:17;;;;;;;;;1.00;1.00;;;;;17.87;47.66;99687.28;4975702;28;45337;-76
2022/09/28 11:38:52;;;;;;;;;1.00;1.00;;;;;17.82;47.57;99686.88;4976738;28;45429;-75
2022/09/28 11:41:39;;;;;;;;;3.00;2.00;;;;;17.74;47.49;99688.44;4975390;28;45408;-77
2022/09/28 11:44:38;;;;;;;;;1.00;1.00;;;;;17.71;48.02;99686.00;4975179;28;48549;-76
2022/09/28 11:47:32;;;;;;;;;1.00;1.00;;;;;17.68;48.02;99685.44;4976523;28;45237;-77
2022/09/28 11:50:24;;;;;;;;;2.00;1.00;;;;;17.83;48.16;99683.16;4992061;28;45261;-76
2022/09/28 11:52:55;;;;;;;;;1.50;1.00;;;;;17.73;47.71;99666.88;4975352;28;46346;-77
2022/09/28 11:55:20;;;;;;;;;2.25;0.50;;;;;17.76;48.96;99678.31;4977258;28;46281;-78
2022/09/28 11:57:59;;;;;;;;;3.00;1.75;;;;;17.56;47.99;99662.13;4974976;28;45516;-76
2022/09/28 12:00:26;;;;;;;;;0.75;0.25;;;;;17.56;47.62;99662.13;4975686;28;45389;-78
2022/09/28 12:03:05;;;;;;;;;1.75;1.50;;;;;17.57;47.92;99672.84;4976364;28;45613;-76
2022/09/28 12:05:40;;;;;;;;;0.00;0.00;;;;;17.46;48.08;99664.81;4976576;28;45340;-77
2022/09/28 12:08:30;;;;;;;;;0.00;0.00;;;;;17.47;48.40;99662.97;4977632;28;45292;-77
2022/09/28 12:11:11;;;;;;;;;1.50;1.00;;;;;17.34;47.85;99652.41;4980176;28;45372;-76
2022/09/28 12:13:48;;;;;;;;;1.00;1.00;;;;;17.34;48.42;99658.69;4977793;28;45396;-75
2022/09/28 12:16:13;;;;;;;;;1.00;1.00;;;;;17.28;48.48;99667.34;4979394;28;45348;-76
2022/09/28 12:18:53;;;;;;;;;4.00;0.75;;;;;16.98;47.29;99652.03;4975111;28;45348;-77
2022/09/28 12:21:47;;;;;;;;;1.00;1.00;;;;;16.88;48.45;99661.97;4976358;28;45217;-75
2022/09/28 12:24:36;;;;;;;;;1.25;1.00;;;;;16.75;48.14;99658.66;4974288;28;45342;-76
2022/09/28 12:27:30;;;;;;;;;2.00;1.00;;;;;16.74;48.53;99654.22;4975991;28;46756;-77
2022/09/28 12:30:12;;;;;;;;;0.00;0.00;;;;;16.74;48.01;99661.50;4976318;28;45483;-76
2022/09/28 12:32:44;;;;;;;;;1.00;1.00;;;;;16.73;47.66;99657.06;4974488;28;45277;-75
2022/09/28 12:35:13;;;;;;;;;2.00;2.00;;;;;16.83;48.03;99656.13;4990562;28;45411;-76
2022/09/28 12:37:49;;;;;;;;;1.00;1.00;;;;;16.90;48.42;99651.00;4973411;28;47888;-76
2022/09/28 12:40:21;;;;;;;;;1.50;1.50;;;;;17.17;48.66;99653.09;4976050;28;45511;-76
2022/09/28 12:43:00;;;;;;;;;1.00;1.00;;;;;18.08;46.50;99653.63;4976152;28;45384;-77
2022/09/28 12:45:51;;;;;;;;;0.00;0.00;;;;;19.07;45.04;99646.75;4973944;28;46266;-75
2022/09/28 12:48:36;;;;;;;;;0.50;0.50;;;;;19.94;43.67;99636.13;4975783;28;45481;-75
2022/09/28 12:51:13;;;;;;;;;2.50;1.00;;;;;20.85;41.51;99633.88;4975952;28;45366;-73
2022/09/28 12:53:59;;;;;;;;;1.25;1.25;;;;;21.88;38.95;99640.84;4990930;28;45560;-75
2022/09/28 12:56:27;;;;;;;;;3.00;1.00;;;;;22.49;38.25;99623.09;4974646;28;47769;-75
2022/09/28 12:59:01;;;;;;;;;3.00;1.50;;;;;22.46;36.63;99628.91;4974451;28;46146;-75
2022/09/28 13:01:46;;;;;;;;;1.00;1.00;;;;;22.11;37.44;99608.31;4974783;28;45433;-74
2022/09/28 13:04:27;;;;;;;;;1.00;1.00;;;;;21.98;38.11;99618.88;4975839;28;45496;-76
2022/09/28 13:07:04;;;;;;;;;1.75;1.00;;;;;21.88;39.29;99619.00;4974790;28;45388;-75
2022/09/28 13:09:45;;;;;;;;;1.00;1.00;;;;;21.70;38.71;99624.63;4974842;28;45657;-74
2022/09/28 13:12:37;;;;;;;;;1.00;1.00;;;;;21.24;38.80;99627.94;4973993;28;45444;-76
2022/09/28 13:15:26;;;;;;;;;1.00;1.00;;;;;20.67;39.71;99631.22;4974220;28;45343;-76
2022/09/28 13:18:00;;;;;;;;;0.50;0.50;;;;;20.10;40.34;99605.47;4975178;28;45277;-75
2022/09/28 13:21:01;;;;;;;;;0.00;0.00;;;;;20.01;41.08;99629.03;4975321;28;45340;-75
2022/09/28 13:23:34;;;;;;;;;0.75;0.75;;;;;20.56;39.79;99625.22;4975355;28;45570;-75
2022/09/28 13:26:25;;;;;;;;;2.00;1.75;;;;;20.81;38.64;99620.75;4973933;28;45221;-75
2022/09/28 13:28:54;;;;;;;;;0.75;0.75;;;;;20.76;39.21;99605.75;4974996;28;45269;-73
2022/09/28 13:31:30;;;;;;;;;2.50;0.75;;;;;20.71;39.74;99623.59;4973582;28;45412;-75
2022/09/28 13:33:58;;;;;;;;;1.00;1.00;;;;;21.27;39.30;99620.28;4975029;28;45517;-75
2022/09/28 13:36:23;;;;;;;;;1.50;0.50;;;;;21.98;37.44;99613.44;4973769;28;45431;-76
2022/09/28 13:38:50;;;;;;;;;2.00;0.50;;;;;22.33;36.76;99604.00;4974820;28;45449;-74
2022/09/28 13:41:27;;;;;;;;;0.75;0.75;;;;;22.38;37.20;99607.06;4975203;28;46343;-75
2022/09/28 13:44:20;;;;;;;;;0.75;0.75;;;;;21.93;37.81;99599.41;4974209;28;45342;-75
2022/09/28 13:46:48;;;;;;;;;0.00;0.00;;;;;21.62;38.37;99623.75;4976187;28;45563;-77
2022/09/28 13:49:23;;;;;;;;;2.50;1.50;;;;;21.17;38.27;99602.34;4972662;28;46924;-75
2022/09/28 13:52:08;;;;;;;;;2.25;2.00;;;;;20.96;38.55;99619.13;4990209;28;47590;-74
2022/09/28 13:54:51;;;;;;;;;4.00;2.50;;;;;20.63;39.54;99610.78;4974720;28;45403;-75
2022/09/28 13:57:19;;;;;;;;;0.25;0.25;;;;;20.39;38.51;99611.50;4973550;28;45322;-75
2022/09/28 14:00:09;;;;;;;;;0.00;0.00;;;;;19.91;39.54;99611.09;4973241;28;46084;-76
2022/09/28 14:02:53;;;;;;;;;0.00;0.00;;;;;19.47;39.77;99619.22;4971536;28;46073;-74
2022/09/28 14:05:21;;;;;;;;;1.75;0.50;;;;;19.08;41.21;99618.56;4963698;28;45397;-76
2022/09/28 14:08:08;;;;;;;;;1.50;1.00;;;;;18.83;42.03;99622.84;4974438;28;45281;-76
2022/09/28 14:10:52;;;;;;;;;1.50;0.75;;;;;18.44;43.05;99627.56;4974699;28;45549;-76
2022/09/28 14:13:42;;;;;;;;;0.00;0.00;;;;;17.97;46.31;99653.75;4974922;28;45289;-74
2022/09/28 14:16:16;;;;;;;;;1.00;1.00;;;;;17.75;47.84;99649.50;4974391;28;45256;-75
2022/09/28 14:18:47;;;;;;;;;0.00;0.00;;;;;17.57;49.28;99662.00;4974760;28;45339;-76
2022/09/28 14:21:15;;;;;;;;;1.50;1.50;;;;;17.31;50.77;99667.09;4974225;28;45520;-74
2022/09/28 14:24:00;;;;;;;;;1.50;0.00;;;;;17.07;51.94;99672.03;4974009;28;46022;-74
2022/09/28 14:26:59;;;;;;;;;0.00;0.00;;;;;16.82;53.85;99667.94;4964445;28;45415;-74
2022/09/28 14:29:36;;;;;;;;;2.50;1.00;;;;;16.58;54.27;99670.94;4972827;28;45396;-76
2022/09/28 14:32:04;;;;;;;;;0.00;0.00;;;;;16.42;55.37;99661.56;4974058;28;45527;-75
2022/09/28 14:34:34;;;;;;;;;1.00;1.00;;;;;16.35;56.53;99663.94;4974510;28;46401;-76
2022/09/28 14:43:46;;;;;;;;;0.75;0.75;;;;;16.00;57.79;99653.47;4974474;28;45287;-75
2022/09/28 14:46:17;;;;;;;;;0.75;0.50;;;;;15.95;57.47;99652.16;4952961;28;45796;-75
2022/09/28 14:48:49;;;;;;;;;0.00;0.00;;;;;15.92;56.67;99655.09;4970052;28;45553;-75
2022/09/28 14:51:24;;;;;;;;;0.00;0.00;;;;;15.98;57.16;99650.06;4974132;28;45338;-74
2022/09/28 14:53:51;;;;;;;;;0.00;0.00;;;;;15.95;54.25;99647.59;4972941;28;46268;-73
2022/09/28 14:56:18;;;;;;;;;0.00;0.00;;;;;15.91;53.41;99648.84;4973883;28;46143;-76
2022/09/28 14:58:45;;;;;;;;;0.00;0.00;;;;;15.72;53.64;99646.00;4973970;28;45446;-76
2022/09/28 15:01:19;;;;;;;;;0.00;0.00;;;;;15.64;53.97;99645.81;4975504;28;45352;-76
2022/09/28 15:03:47;;;;;;;;;0.00;0.00;;;;;15.67;54.19;99649.09;4976237;28;46536;-76
2022/09/28 15:06:18;;;;;;;;;0.00;0.00;;;;;15.66;54.14;99643.81;4977168;28;46047;-75
2022/09/28 15:08:43;;;;;;;;;1.00;0.25;;;;;15.58;54.17;99646.28;4976211;28;45351;-75
2022/09/28 15:11:16;;;;;;;;;2.00;0.25;;;;;15.47;54.78;99650.75;4977174;28;45431;-72
2022/09/28 15:13:42;;;;;;;;;0.00;0.00;;;;;15.37;54.74;99644.38;4978088;28;45570;-76
2022/09/28 15:16:21;;;;;;;;;1.00;1.00;;;;;15.43;54.69;99654.66;4976644;28;46524;-75
2022/09/28 15:19:18;;;;;;;;;0.00;0.00;;;;;15.40;54.67;99649.50;4978640;28;45294;-75
2022/09/28 15:21:46;;;;;;;;;0.00;0.00;;;;;15.41;54.18;99650.38;4978772;28;45391;-76
2022/09/28 15:24:30;;;;;;;;;2.00;1.00;;;;;15.37;55.02;99649.78;4978027;28;46084;-75
2022/09/28 15:26:56;;;;;;;;;1.00;1.00;;;;;15.42;54.94;99649.38;4977082;28;46698;-76
2022/09/28 15:29:22;;;;;;;;;1.00;1.00;;;;;15.47;54.81;99639.94;4975343;28;45273;-76
2022/09/28 15:31:47;;;;;;;;;1.00;1.00;;;;;15.56;54.01;99651.84;4976806;28;45401;-76
2022/09/28 15:34:51;;;;;;;;;2.00;0.75;;;;;15.55;54.20;99642.03;4976935;28;45635;-76
2022/09/28 15:37:34;;;;;;;;;2.00;1.00;;;;;15.61;54.37;99635.25;4965431;28;45563;-76
2022/09/28 15:40:01;;;;;;;;;0.00;0.00;;;;;15.76;53.74;99642.91;4976523;28;45321;-76
2022/09/28 15:42:27;;;;;;;;;1.00;1.00;;;;;15.60;53.36;99606.50;4991972;28;45313;-75
2022/09/28 15:45:25;;;;;;;;;4.00;1.00;;;;;15.77;54.29;99647.31;4991720;28;45537;-75
2022/09/28 15:48:24;;;;;;;;;2.00;2.00;;;;;15.85;53.38;99652.06;4975385;28;46053;-76
2022/09/28 15:51:10;;;;;;;;;0.00;0.00;;;;;15.93;52.91;99624.38;4976739;28;45323;-76
2022/09/28 15:53:52;;;;;;;;;1.00;1.00;;;;;16.27;52.49;99634.00;4975692;28;45715;-76
2022/09/28 15:56:18;;;;;;;;;1.00;1.00;;;;;16.60;51.01;99633.75;4976343;28;45494;-76
2022/09/28 15:59:08;;;;;;;;;0.00;0.00;;;;;16.82;50.47;99638.16;4976502;28;45371;-77
2022/09/28 16:01:36;;;;;;;;;0.00;0.00;;;;;16.92;49.54;99630.09;4975050;28;45328;-77
2022/09/28 16:04:39;;;;;;;;;0.75;0.75;;;;;17.29;49.65;99642.00;4976813;28;45553;-76
2022/09/28 16:07:39;;;;;;;;;1.00;1.00;;;;;17.70;48.64;99651.75;4976074;28;45439;-76
2022/09/28 16:10:10;;;;;;;;;0.50;0.50;;;;;18.07;47.34;99646.47;4976586;28;45976;-77
2022/09/28 16:12:36;;;;;;;;;0.00;0.00;;;;;18.15;47.70;99643.03;4976167;28;45328;-76
2022/09/28 16:15:24;;;;;;;;;0.00;0.00;;;;;18.20;47.51;99637.19;4976819;28;45441;-77
2022/09/28 16:18:20;;;;;;;;;0.00;0.00;;;;;18.27;47.18;99631.03;4976652;28;45544;-78
2022/09/28 16:20:55;;;;;;;;;2.75;1.00;;;;;18.40;46.89;99646.97;4974671;28;46158;-77
2022/09/28 16:23:20;;;;;;;;;0.50;0.50;;;;;18.34;46.98;99647.56;4974740;28;45804;-79
2022/09/28 16:25:50;;;;;;;;;1.00;1.00;;;;;18.17;46.97;99608.47;4976218;28;45412;-77
2022/09/28 16:28:32;;;;;;;;;0.00;0.00;;;;;18.51;46.95;99642.25;4976437;28;45612;-77
2022/09/28 16:31:06;;;;;;;;;1.00;1.00;;;;;18.49;46.71;99646.09;4975527;28;45640;-79
2022/09/28 16:33:55;;;;;;;;;1.00;1.00;;;;;18.29;46.95;99648.00;4974773;28;45417;-78
2022/09/28 16:36:21;;;;;;;;;0.00;0.00;;;;;18.10;46.79;99638.06;4976383;28;45332;-76
2022/09/28 16:38:48;;;;;;;;;2.00;1.00;;;;;17.66;46.99;99614.25;4976100;28;45403;-76
2022/09/28 16:41:21;;;;;;;;;0.00;0.00;;;;;17.59;47.17;99646.47;4974596;28;47221;-78
2022/09/28 16:43:47;;;;;;;;;1.00;1.00;;;;;17.25;48.47;99637.00;4976529;28;45506;-78
2022/09/28 16:46:16;;;;;;;;;0.50;0.00;;;;;17.14;48.82;99646.09;4976437;28;45475;-77
2022/09/28 16:48:49;;;;;;;;;0.00;0.00;;;;;17.06;49.45;99654.06;4976405;28;45337;-76